Time;durP1;ratioP1;P1;durP2;ratioP2;P2;SDS_P1;SDS_P2;PMS_P1;PMS_P2;Temp;Humidity;BMP_temperature;BMP_pressure;BME280_temperature;BME280_humidity;BME280_pressure;Samples;Min_cycle;Max_cycle;Signal;HPM_P1;HPM_P2
2023/02/05 00:02:19;;;;;;;13.60;5.50;;;-3.70;99.90;;;;;;5012581;28;20315;-71
2023/02/05 00:04:45;;;;;;;10.57;5.23;;;-3.70;99.90;;;;;;5011431;28;20198;-72
2023/02/05 00:07:12;;;;;;;9.80;4.40;;;-3.70;99.90;;;;;;5012343;28;20600;-73
2023/02/05 00:09:39;;;;;;;11.47;4.83;;;-3.60;99.90;;;;;;4995106;28;20677;-72
2023/02/05 00:12:07;;;;;;;11.27;4.73;;;-3.60;99.90;;;;;;5012759;28;20200;-72
2023/02/05 00:14:33;;;;;;;11.67;5.17;;;-3.50;99.90;;;;;;4995704;28;20643;-65
2023/02/05 00:17:00;;;;;;;11.97;5.20;;;-3.50;99.90;;;;;;4994990;28;20230;-67
2023/02/05 00:19:27;;;;;;;9.33;4.60;;;-3.40;99.90;;;;;;5012611;28;20625;-67
2023/02/05 00:21:54;;;;;;;9.30;4.83;;;-3.30;99.90;;;;;;5013606;28;20238;-71
2023/02/05 00:24:21;;;;;;;9.57;4.33;;;-3.20;99.90;;;;;;4997011;28;20199;-70
2023/02/05 00:26:48;;;;;;;10.67;5.03;;;-3.20;99.90;;;;;;4995088;28;20561;-71
2023/02/05 00:29:15;;;;;;;9.87;4.43;;;-3.10;99.90;;;;;;4994736;28;20232;-71
2023/02/05 00:31:42;;;;;;;9.40;4.73;;;-3.10;99.90;;;;;;4994915;28;20208;-71
2023/02/05 00:34:09;;;;;;;10.40;4.80;;;-3.10;99.90;;;;;;5012353;28;20561;-71
2023/02/05 00:36:36;;;;;;;9.83;4.50;;;-3.10;99.90;;;;;;5016218;28;20290;-71
2023/02/05 00:39:03;;;;;;;10.63;4.57;;;-3.00;99.90;;;;;;5014959;28;20293;-70
2023/02/05 00:41:29;;;;;;;9.43;4.67;;;-2.90;99.90;;;;;;5014752;28;20266;-70
2023/02/05 00:43:56;;;;;;;10.47;5.07;;;-2.90;99.90;;;;;;5016116;28;20227;-71
2023/02/05 00:46:23;;;;;;;10.70;5.03;;;-2.90;99.90;;;;;;5023117;28;20229;-71
2023/02/05 00:48:50;;;;;;;10.80;4.93;;;-2.90;99.90;;;;;;4998408;28;20242;-70
2023/02/05 00:51:17;;;;;;;9.33;4.47;;;-2.80;99.90;;;;;;4998218;28;20344;-71
2023/02/05 00:53:44;;;;;;;11.27;4.83;;;-2.80;99.90;;;;;;4998759;28;20291;-71
2023/02/05 00:56:11;;;;;;;9.33;4.40;;;-2.80;99.90;;;;;;5030273;28;20200;-71
2023/02/05 00:58:38;;;;;;;9.67;4.70;;;-2.80;99.90;;;;;;5015745;28;20590;-70
2023/02/05 01:01:05;;;;;;;9.17;4.40;;;-2.80;99.90;;;;;;5015732;28;20598;-70
2023/02/05 01:03:32;;;;;;;7.67;4.47;;;-2.80;99.90;;;;;;4997961;28;20226;-71
2023/02/05 01:06:02;;;;;;;7.17;4.03;;;-2.80;99.90;;;;;;5015644;28;20691;-73
2023/02/05 01:08:28;;;;;;;8.60;4.07;;;-2.90;99.90;;;;;;4997128;28;20232;-72
2023/02/05 01:10:55;;;;;;;7.77;3.83;;;-2.80;99.90;;;;;;5015628;28;20199;-71
2023/02/05 01:13:22;;;;;;;10.87;4.50;;;-2.80;99.90;;;;;;4997693;28;20192;-71
2023/02/05 01:15:49;;;;;;;8.37;4.17;;;-2.80;99.90;;;;;;5015178;28;20208;-71
2023/02/05 01:18:16;;;;;;;11.33;4.00;;;-2.70;99.90;;;;;;5015380;28;20192;-83
2023/02/05 01:20:43;;;;;;;11.40;4.77;;;-2.70;99.90;;;;;;4997655;28;20234;-72
2023/02/05 01:23:10;;;;;;;9.53;4.30;;;-2.70;99.90;;;;;;4997860;28;20208;-71
2023/02/05 01:25:37;;;;;;;8.13;3.87;;;-2.70;99.90;;;;;;5015524;28;20596;-73
2023/02/05 01:28:05;;;;;;;7.27;3.73;;;-2.60;99.90;;;;;;4997559;28;20204;-72
2023/02/05 01:30:33;;;;;;;8.07;4.00;;;-2.60;99.90;;;;;;5015377;28;20236;-67
2023/02/05 01:33:01;;;;;;;9.37;4.03;;;-2.60;99.90;;;;;;4997577;28;20202;-71
2023/02/05 01:35:27;;;;;;;8.10;3.90;;;-2.60;99.90;;;;;;4997317;28;20184;-72
2023/02/05 01:37:54;;;;;;;8.97;4.07;;;-2.50;99.90;;;;;;4997602;28;20195;-71
2023/02/05 01:40:22;;;;;;;9.03;4.03;;;-2.50;99.90;;;;;;4997377;28;20199;-73
2023/02/05 01:42:48;;;;;;;9.47;3.73;;;-2.50;99.90;;;;;;4997398;28;20223;-71
2023/02/05 01:45:25;;;;;;;10.17;4.47;;;-2.50;99.90;;;;;;4996682;28;20221;-70
2023/02/05 01:48:00;;;;;;;8.43;4.20;;;-2.60;99.90;;;;;;5015013;28;20200;-70
2023/02/05 01:50:41;;;;;;;8.37;3.70;;;-2.60;99.90;;;;;;5013348;28;20196;-71
2023/02/05 01:53:14;;;;;;;8.63;3.97;;;-2.60;99.90;;;;;;5013355;28;20196;-72
2023/02/05 01:55:50;;;;;;;7.90;4.10;;;-2.50;99.90;;;;;;4996943;28;20304;-73
2023/02/05 01:58:17;;;;;;;8.00;3.83;;;-2.60;99.90;;;;;;5013424;28;20200;-72
2023/02/05 02:00:46;;;;;;;10.27;4.33;;;-2.60;99.90;;;;;;4997241;28;20278;-71
2023/02/05 02:03:14;;;;;;;10.30;4.70;;;-2.60;99.90;;;;;;4996955;28;20730;-73
2023/02/05 02:05:42;;;;;;;9.20;4.50;;;-2.60;99.90;;;;;;4996513;28;20299;-71
2023/02/05 02:08:11;;;;;;;9.07;4.97;;;-2.60;99.90;;;;;;4997073;28;20190;-72
2023/02/05 02:10:42;;;;;;;12.17;4.90;;;-2.80;99.90;;;;;;5013402;28;20200;-73
2023/02/05 02:13:10;;;;;;;8.70;4.63;;;-2.70;99.90;;;;;;4997380;28;20209;-75
2023/02/05 02:15:38;;;;;;;9.53;4.87;;;-2.70;99.90;;;;;;4996998;28;20198;-69
2023/02/05 02:18:26;;;;;;;10.07;4.80;;;-2.80;99.90;;;;;;5014368;28;20195;-72
2023/02/05 02:21:20;;;;;;;13.00;5.50;;;-2.80;99.90;;;;;;5014074;28;20220;-73
2023/02/05 02:24:13;;;;;;;11.87;4.77;;;-2.80;99.90;;;;;;4996547;28;20204;-70
2023/02/05 02:27:02;;;;;;;11.17;4.70;;;-2.80;99.90;;;;;;4996400;28;20220;-71
2023/02/05 02:29:56;;;;;;;11.90;5.17;;;-2.80;99.90;;;;;;4996498;28;20213;-71
2023/02/05 02:32:37;;;;;;;10.20;4.73;;;-2.70;99.90;;;;;;4980464;28;20200;-71
2023/02/05 02:35:12;;;;;;;11.53;5.10;;;-2.70;99.90;;;;;;4996563;28;20560;-71
2023/02/05 02:37:49;;;;;;;8.97;4.90;;;-2.70;99.90;;;;;;4996385;28;20598;-70
2023/02/05 02:40:34;;;;;;;10.37;4.80;;;-2.80;99.90;;;;;;5013841;28;20197;-71
2023/02/05 02:43:25;;;;;;;9.40;4.53;;;-2.80;99.90;;;;;;4996622;28;20205;-71
2023/02/05 02:45:59;;;;;;;12.43;4.70;;;-2.90;99.90;;;;;;4995890;28;20232;-70
2023/02/05 02:48:28;;;;;;;13.67;4.93;;;-3.00;99.90;;;;;;4996078;28;20201;-70
2023/02/05 02:50:57;;;;;;;11.90;5.23;;;-3.10;99.90;;;;;;5013508;28;20243;-70
2023/02/05 02:53:33;;;;;;;11.67;5.20;;;-3.00;99.90;;;;;;4996207;28;20195;-69
2023/02/05 02:56:01;;;;;;;11.73;4.63;;;-3.00;99.90;;;;;;4995739;28;20206;-68
2023/02/05 02:58:41;;;;;;;10.00;4.47;;;-3.00;99.90;;;;;;4995422;28;20203;-70
2023/02/05 03:01:10;;;;;;;12.57;4.77;;;-2.90;99.90;;;;;;5013902;28;20211;-73
2023/02/05 03:03:45;;;;;;;10.87;4.47;;;-3.10;99.90;;;;;;5012318;28;20208;-72
2023/02/05 03:06:14;;;;;;;9.30;4.60;;;-3.20;99.90;;;;;;5011993;28;20208;-69
2023/02/05 03:08:54;;;;;;;9.03;4.20;;;-3.20;99.90;;;;;;4995786;28;20683;-70
2023/02/05 03:11:20;;;;;;;10.83;4.63;;;-3.10;99.90;;;;;;4996219;28;20195;-72
2023/02/05 03:13:47;;;;;;;9.27;4.27;;;-3.00;99.90;;;;;;4995598;28;20204;-71
2023/02/05 03:16:18;;;;;;;10.30;4.70;;;-2.90;99.90;;;;;;4995360;28;20733;-71
2023/02/05 03:18:46;;;;;;;9.97;4.43;;;-2.80;99.90;;;;;;4995537;28;20209;-71
2023/02/05 03:21:39;;;;;;;9.63;4.70;;;-2.70;99.90;;;;;;4995554;28;20739;-73
2023/02/05 03:24:08;;;;;;;9.93;4.67;;;-2.70;99.90;;;;;;5013166;28;20196;-72
2023/02/05 03:26:35;;;;;;;9.27;4.10;;;-2.80;99.90;;;;;;4995583;28;20193;-74
2023/02/05 03:29:06;;;;;;;11.33;4.60;;;-2.80;99.90;;;;;;4995482;28;20199;-71
2023/02/05 03:31:57;;;;;;;11.60;4.57;;;-2.70;99.90;;;;;;4995605;28;20188;-72
2023/02/05 03:34:50;;;;;;;9.77;4.53;;;-2.60;99.90;;;;;;4995257;28;20189;-74
2023/02/05 03:37:27;;;;;;;9.20;4.20;;;-2.70;99.90;;;;;;4995214;28;20200;-72
2023/02/05 03:40:16;;;;;;;8.07;4.10;;;-2.60;99.90;;;;;;4995282;28;20188;-73
2023/02/05 03:43:01;;;;;;;9.73;4.47;;;-2.60;99.90;;;;;;5012229;28;20228;-73
2023/02/05 03:45:56;;;;;;;8.50;3.90;;;-2.70;99.90;;;;;;4984581;28;20189;-71
2023/02/05 03:48:47;;;;;;;7.83;3.73;;;-2.70;99.90;;;;;;4993124;28;20276;-71
2023/02/05 03:51:31;;;;;;;10.93;4.17;;;-2.70;99.90;;;;;;4919598;29;20214;-73
2023/02/05 03:54:04;;;;;;;9.17;4.07;;;-2.70;99.90;;;;;;4928782;29;20571;-73
2023/02/05 03:56:51;;;;;;;9.33;4.10;;;-2.60;99.90;;;;;;4898093;29;20204;-72
2023/02/05 03:59:19;;;;;;;10.13;4.30;;;-2.50;99.90;;;;;;4857762;29;20206;-72
2023/02/05 04:01:46;;;;;;;9.03;4.30;;;-2.40;99.90;;;;;;4857526;29;20249;-72
2023/02/05 04:04:13;;;;;;;8.80;4.13;;;-2.40;99.90;;;;;;4842382;29;20327;-74
2023/02/05 04:06:40;;;;;;;9.30;4.57;;;-2.60;99.90;;;;;;4858004;29;20205;-74
2023/02/05 04:09:08;;;;;;;9.17;4.00;;;-2.60;99.90;;;;;;4839465;29;20209;-73
2023/02/05 04:11:36;;;;;;;7.57;4.13;;;-2.50;99.90;;;;;;4839373;29;20294;-74
2023/02/05 04:14:04;;;;;;;7.80;4.00;;;-2.60;99.90;;;;;;4839158;29;20705;-73
2023/02/05 04:16:32;;;;;;;8.77;4.10;;;-2.40;99.90;;;;;;4839266;29;20210;-73
2023/02/05 04:18:59;;;;;;;7.80;4.00;;;-2.50;99.90;;;;;;4839402;29;20195;-73
2023/02/05 04:21:26;;;;;;;10.20;4.33;;;-2.40;99.90;;;;;;4850950;29;20265;-73
2023/02/05 04:23:53;;;;;;;8.67;4.20;;;-2.50;99.90;;;;;;4842292;29;20210;-74
2023/02/05 04:26:20;;;;;;;8.10;4.10;;;-2.40;99.90;;;;;;4857418;29;20294;-74
2023/02/05 04:28:47;;;;;;;8.73;4.13;;;-2.30;99.90;;;;;;4907841;29;20218;-72
2023/02/05 04:31:14;;;;;;;6.53;4.00;;;-2.30;99.90;;;;;;4917005;29;20214;-75
2023/02/05 04:33:41;;;;;;;8.40;3.90;;;-2.30;99.90;;;;;;4916492;29;20247;-74
2023/02/05 04:36:08;;;;;;;7.60;4.00;;;-2.20;99.90;;;;;;4928977;28;20214;-74
2023/02/05 04:38:35;;;;;;;6.93;3.73;;;-2.20;99.90;;;;;;4994469;28;20200;-74
2023/02/05 04:41:02;;;;;;;8.13;3.73;;;-2.20;99.90;;;;;;5009936;28;20199;-75
2023/02/05 04:43:29;;;;;;;7.40;3.63;;;-2.30;99.90;;;;;;4992468;28;20200;-74
2023/02/05 04:45:56;;;;;;;9.03;4.37;;;-2.20;99.90;;;;;;5011900;28;20228;-74
2023/02/05 04:48:23;;;;;;;8.10;3.90;;;-2.30;99.90;;;;;;4994473;28;20200;-74
2023/02/05 04:50:50;;;;;;;7.10;4.00;;;-2.30;99.90;;;;;;4994398;28;20196;-73
2023/02/05 04:53:16;;;;;;;7.13;4.20;;;-2.30;99.90;;;;;;4994410;28;20198;-73
2023/02/05 04:55:43;;;;;;;6.63;3.87;;;-2.50;99.90;;;;;;4994089;28;20213;-72
2023/02/05 04:58:10;;;;;;;8.77;3.70;;;-2.40;99.90;;;;;;4994559;28;20202;-75
2023/02/05 05:00:37;;;;;;;7.30;3.80;;;-2.60;99.90;;;;;;4978586;28;20194;-74
2023/02/05 05:03:04;;;;;;;7.87;4.10;;;-2.60;99.90;;;;;;4994170;28;20237;-74
2023/02/05 05:05:33;;;;;;;8.07;4.20;;;-2.50;99.90;;;;;;4994282;28;20197;-72
2023/02/05 05:08:00;;;;;;;8.20;3.90;;;-2.50;99.90;;;;;;4994393;28;20194;-74
2023/02/05 05:10:27;;;;;;;8.17;4.10;;;-2.50;99.90;;;;;;4994392;28;20196;-70
2023/02/05 05:12:54;;;;;;;7.57;4.13;;;-2.50;99.90;;;;;;4994351;28;20563;-70
2023/02/05 05:15:21;;;;;;;8.60;4.40;;;-2.50;99.90;;;;;;4978201;28;20293;-70
2023/02/05 05:17:48;;;;;;;6.00;3.70;;;-2.50;99.90;;;;;;4974804;28;20193;-70
2023/02/05 05:20:15;;;;;;;7.87;4.20;;;-2.40;99.90;;;;;;4985216;28;20205;-70
2023/02/05 05:22:42;;;;;;;10.30;4.50;;;-2.40;99.90;;;;;;4997548;28;20668;-73
2023/02/05 05:25:09;;;;;;;6.53;4.10;;;-2.60;99.90;;;;;;5015117;28;20505;-70
2023/02/05 05:27:36;;;;;;;8.37;4.00;;;-2.70;99.90;;;;;;5014993;28;20196;-71
2023/02/05 05:30:03;;;;;;;8.37;4.43;;;-2.60;99.90;;;;;;4997626;28;20206;-72
2023/02/05 05:32:30;;;;;;;7.83;3.77;;;-2.50;99.90;;;;;;4997993;28;20202;-71
2023/02/05 05:34:57;;;;;;;9.57;4.37;;;-2.50;99.90;;;;;;4997335;28;20192;-72
2023/02/05 05:37:23;;;;;;;8.27;3.80;;;-2.50;99.90;;;;;;4997543;28;20207;-72
2023/02/05 05:45:22;;;;;;;9.37;4.43;;;-2.70;99.90;;;;;;4996154;28;20212;-72
2023/02/05 05:47:49;;;;;;;9.77;4.60;;;-2.60;99.90;;;;;;4977787;28;20563;-72
2023/02/05 05:50:16;;;;;;;8.87;4.73;;;-2.60;99.90;;;;;;4995219;28;20546;-71
2023/02/05 05:52:42;;;;;;;9.17;4.60;;;-2.70;99.90;;;;;;4977549;28;20566;-73
2023/02/05 05:55:09;;;;;;;9.23;4.40;;;-2.80;99.90;;;;;;4995020;28;20190;-73
2023/02/05 05:57:36;;;;;;;11.20;4.70;;;-2.80;99.90;;;;;;4994943;28;20563;-72
2023/02/05 06:00:04;;;;;;;9.17;4.43;;;-2.90;99.90;;;;;;4977882;28;20201;-72
2023/02/05 06:02:31;;;;;;;11.07;5.10;;;-2.80;99.90;;;;;;4977521;28;20675;-73
2023/02/05 06:04:58;;;;;;;9.53;4.83;;;-2.70;99.90;;;;;;4977644;28;20660;-74
2023/02/05 06:07:25;;;;;;;9.73;4.90;;;-2.70;99.90;;;;;;4977294;28;20205;-73
2023/02/05 06:09:51;;;;;;;9.60;4.67;;;-2.80;99.90;;;;;;4977758;28;20434;-74
2023/02/05 06:12:18;;;;;;;10.67;5.47;;;-2.80;99.90;;;;;;4977533;28;20640;-73
2023/02/05 06:14:45;;;;;;;8.30;4.70;;;-2.80;99.90;;;;;;4994682;28;20201;-72
2023/02/05 06:17:12;;;;;;;7.57;4.33;;;-2.70;99.90;;;;;;4977212;28;20213;-73
2023/02/05 06:19:39;;;;;;;8.47;4.70;;;-2.60;99.90;;;;;;4977416;28;20189;-73
2023/02/05 06:22:06;;;;;;;11.40;4.80;;;-2.70;99.90;;;;;;4994900;28;20227;-69
2023/02/05 06:24:33;;;;;;;10.27;4.90;;;-2.80;99.90;;;;;;4957983;28;20648;-72
2023/02/05 06:27:00;;;;;;;8.93;4.63;;;-2.70;99.90;;;;;;4975107;28;20208;-73
2023/02/05 06:29:26;;;;;;;11.67;5.30;;;-2.80;99.90;;;;;;4973941;28;20212;-72
2023/02/05 06:31:53;;;;;;;12.33;5.30;;;-2.80;99.90;;;;;;4957884;28;20209;-73
2023/02/05 06:34:20;;;;;;;11.20;4.90;;;-2.70;99.90;;;;;;4977037;28;20555;-73
2023/02/05 06:36:47;;;;;;;9.70;4.97;;;-2.70;99.90;;;;;;4993812;28;20618;-73
2023/02/05 06:39:14;;;;;;;10.33;5.13;;;-2.60;99.90;;;;;;4976953;28;20197;-71
2023/02/05 06:41:40;;;;;;;10.90;5.30;;;-2.50;99.90;;;;;;4993294;28;20520;-72
2023/02/05 06:44:07;;;;;;;10.10;5.00;;;-2.40;99.90;;;;;;4993002;28;20200;-71
2023/02/05 06:46:34;;;;;;;10.63;4.60;;;-2.40;99.90;;;;;;5003824;28;20224;-73
2023/02/05 06:49:01;;;;;;;10.37;4.90;;;-2.30;99.90;;;;;;5012488;28;20259;-71
2023/02/05 06:51:28;;;;;;;11.37;5.30;;;-2.30;99.90;;;;;;5012270;28;20670;-70
2023/02/05 06:53:56;;;;;;;9.33;5.10;;;-2.30;99.90;;;;;;5012614;28;20255;-70
2023/02/05 06:56:23;;;;;;;8.63;4.53;;;-2.30;99.90;;;;;;5012279;28;20201;-70
2023/02/05 06:58:50;;;;;;;11.47;5.00;;;-2.40;99.90;;;;;;5012575;28;20203;-67
2023/02/05 07:01:17;;;;;;;8.83;4.30;;;-2.30;99.90;;;;;;5012105;28;20593;-70
2023/02/05 07:03:44;;;;;;;7.93;4.37;;;-2.40;99.90;;;;;;5011919;28;20238;-69
2023/02/05 07:06:11;;;;;;;8.40;4.47;;;-2.30;99.90;;;;;;5011866;28;20207;-68
2023/02/05 07:08:37;;;;;;;9.30;4.30;;;-2.40;99.90;;;;;;5012028;28;20204;-73
2023/02/05 07:11:05;;;;;;;10.23;4.73;;;-2.30;99.90;;;;;;5012229;28;20201;-72
2023/02/05 07:13:31;;;;;;;9.40;4.90;;;-2.40;99.90;;;;;;5012360;28;20213;-70
2023/02/05 07:16:03;;;;;;;7.33;4.17;;;-2.30;99.90;;;;;;5002137;28;20213;-69
2023/02/05 07:18:31;;;;;;;7.97;4.10;;;-2.30;99.90;;;;;;4995565;28;20654;-69
2023/02/05 07:20:58;;;;;;;7.30;3.80;;;-2.30;99.90;;;;;;4995542;28;20201;-72
2023/02/05 07:23:25;;;;;;;6.63;4.07;;;-2.30;99.90;;;;;;4995362;28;20235;-69
2023/02/05 07:25:52;;;;;;;7.20;4.10;;;-2.20;99.90;;;;;;4995379;28;20667;-68
2023/02/05 07:28:19;;;;;;;13.10;4.90;;;-2.20;99.90;;;;;;4995631;28;20193;-69
2023/02/05 07:30:47;;;;;;;8.67;4.40;;;-2.20;99.90;;;;;;5013144;28;20732;-71
2023/02/05 07:33:15;;;;;;;8.70;4.37;;;-2.20;99.90;;;;;;5011706;28;20230;-71
2023/02/05 07:35:41;;;;;;;6.80;4.10;;;-2.20;99.90;;;;;;4995375;28;20200;-73
2023/02/05 07:38:09;;;;;;;8.17;4.23;;;-2.20;99.90;;;;;;5012885;28;20200;-72
2023/02/05 07:40:36;;;;;;;7.07;4.10;;;-2.10;99.90;;;;;;4995681;28;20192;-71
2023/02/05 07:43:03;;;;;;;7.47;4.27;;;-2.10;99.90;;;;;;4994761;28;20222;-69
2023/02/05 07:45:30;;;;;;;7.97;4.70;;;-2.00;99.90;;;;;;4994794;28;20536;-72
2023/02/05 07:47:57;;;;;;;9.77;4.57;;;-2.00;99.90;;;;;;4995449;28;20259;-70
2023/02/05 07:50:24;;;;;;;7.77;4.27;;;-2.10;99.90;;;;;;4994961;28;20558;-71
2023/02/05 07:52:51;;;;;;;9.47;4.40;;;-2.10;99.90;;;;;;4994944;28;20648;-71
2023/02/05 07:55:18;;;;;;;7.40;3.87;;;-2.10;99.90;;;;;;4995020;28;20205;-71
2023/02/05 07:57:45;;;;;;;6.03;4.00;;;-2.00;99.90;;;;;;4994866;28;20201;-72
2023/02/05 08:00:12;;;;;;;7.67;4.17;;;-1.90;99.90;;;;;;4995100;28;20204;-71
2023/02/05 08:02:39;;;;;;;9.00;4.33;;;-1.90;99.90;;;;;;4994680;28;20587;-72
2023/02/05 08:05:07;;;;;;;7.50;4.10;;;-1.90;99.90;;;;;;4994878;28;20634;-71
2023/02/05 08:07:34;;;;;;;9.47;4.83;;;-1.90;99.90;;;;;;4995153;28;20637;-72
2023/02/05 08:10:03;;;;;;;8.97;4.67;;;-1.80;99.90;;;;;;4995274;28;20197;-71
2023/02/05 08:12:30;;;;;;;8.93;4.83;;;-1.70;99.90;;;;;;4994745;28;20656;-72
2023/02/05 08:14:57;;;;;;;9.30;4.77;;;-1.50;99.90;;;;;;4994911;28;20543;-70
2023/02/05 08:17:24;;;;;;;8.73;4.77;;;-1.30;99.90;;;;;;4994688;28;20583;-68
2023/02/05 08:19:51;;;;;;;7.93;3.93;;;-0.90;99.90;;;;;;4994659;28;20204;-69
2023/02/05 08:22:18;;;;;;;7.50;4.57;;;-0.40;99.90;;;;;;5012804;28;20214;-69
2023/02/05 08:24:45;;;;;;;7.47;3.90;;;0.10;99.90;;;;;;4994695;28;20681;-70
2023/02/05 08:27:12;;;;;;;10.80;4.90;;;0.60;99.90;;;;;;4994585;28;20203;-75
2023/02/05 08:29:38;;;;;;;7.63;4.27;;;0.90;99.90;;;;;;4994674;28;20289;-72
2023/02/05 08:32:05;;;;;;;8.27;4.40;;;0.70;99.90;;;;;;5012458;28;20209;-71
2023/02/05 08:34:33;;;;;;;8.77;4.33;;;0.40;99.90;;;;;;5011851;28;20201;-71
2023/02/05 08:37:00;;;;;;;9.90;4.07;;;0.50;99.90;;;;;;5012041;28;20546;-69
2023/02/05 08:39:27;;;;;;;7.27;4.27;;;0.70;99.90;;;;;;4994529;28;20203;-70
2023/02/05 08:41:54;;;;;;;6.43;4.03;;;0.80;99.90;;;;;;4994565;28;20201;-70
2023/02/05 08:44:22;;;;;;;7.27;4.30;;;1.00;99.90;;;;;;4994421;28;20203;-71
2023/02/05 08:46:49;;;;;;;6.90;3.93;;;1.20;99.90;;;;;;4981548;28;20232;-70
2023/02/05 08:49:17;;;;;;;6.77;4.10;;;1.40;99.90;;;;;;4992535;28;20203;-72
2023/02/05 08:51:44;;;;;;;6.80;4.17;;;1.50;99.90;;;;;;4991152;28;20220;-73
2023/02/05 08:54:12;;;;;;;7.03;4.10;;;1.80;99.90;;;;;;4992461;28;20211;-75
2023/02/05 08:56:40;;;;;;;8.07;4.37;;;2.10;99.90;;;;;;4977887;28;20235;-73
2023/02/05 08:59:07;;;;;;;6.73;4.33;;;2.20;99.90;;;;;;4978721;28;20584;-74
2023/02/05 09:01:42;;;;;;;7.40;3.63;;;2.10;99.90;;;;;;4996129;28;20562;-75
2023/02/05 09:04:27;;;;;;;7.53;4.47;;;2.20;99.90;;;;;;4990747;28;20235;-76
2023/02/05 09:06:54;;;;;;;6.27;4.07;;;1.80;99.90;;;;;;4994859;28;20572;-74
2023/02/05 09:09:20;;;;;;;8.60;4.10;;;1.60;99.90;;;;;;4994559;28;20223;-76
2023/02/05 09:11:47;;;;;;;7.20;4.10;;;1.40;99.90;;;;;;4994789;28;20210;-75
2023/02/05 09:14:15;;;;;;;7.03;4.57;;;1.30;99.90;;;;;;4994634;28;20200;-73
2023/02/05 09:16:41;;;;;;;5.93;3.60;;;1.20;99.90;;;;;;4994977;28;20199;-72
2023/02/05 09:19:09;;;;;;;8.00;4.33;;;1.10;99.90;;;;;;4994629;28;20195;-75
2023/02/05 09:21:35;;;;;;;9.83;4.97;;;0.80;99.90;;;;;;4995914;28;20243;-71
2023/02/05 09:24:03;;;;;;;8.70;4.87;;;0.80;99.90;;;;;;4995533;28;20570;-69
2023/02/05 09:26:29;;;;;;;10.70;5.10;;;0.80;99.90;;;;;;4994387;28;20201;-71
2023/02/05 09:28:56;;;;;;;8.70;4.70;;;0.90;99.90;;;;;;4994362;28;20201;-74
2023/02/05 09:31:24;;;;;;;9.57;4.97;;;0.50;99.90;;;;;;4994248;28;20206;-73
2023/02/05 09:33:50;;;;;;;8.00;4.20;;;0.40;99.90;;;;;;4987917;28;20209;-74
2023/02/05 09:36:20;;;;;;;7.33;4.23;;;0.40;99.90;;;;;;4977977;28;20197;-75
2023/02/05 09:38:48;;;;;;;8.23;4.53;;;0.30;99.90;;;;;;4995401;28;20276;-75
2023/02/05 09:41:36;;;;;;;6.07;4.20;;;0.20;99.90;;;;;;4977923;28;20205;-72
2023/02/05 09:44:06;;;;;;;9.33;4.43;;;0.10;99.90;;;;;;4977886;28;20570;-73
2023/02/05 09:47:06;;;;;;;6.87;4.00;;;0.00;99.90;;;;;;4977566;28;20231;-74
2023/02/05 09:49:44;;;;;;;7.40;4.23;;;0.00;99.90;;;;;;4977710;28;20287;-72
2023/02/05 09:52:36;;;;;;;7.27;4.10;;;0.00;99.90;;;;;;4981610;28;20318;-74
2023/02/05 09:55:15;;;;;;;6.80;4.40;;;0.10;99.90;;;;;;4990154;28;20219;-73
2023/02/05 09:57:42;;;;;;;8.80;4.67;;;0.00;99.90;;;;;;4958079;28;20198;-72
2023/02/05 10:00:22;;;;;;;8.10;4.70;;;0.00;99.90;;;;;;4975632;28;20254;-75
2023/02/05 10:03:09;;;;;;;7.97;4.60;;;0.10;99.90;;;;;;4975315;28;20750;-74
2023/02/05 10:05:52;;;;;;;6.13;3.50;;;0.10;99.90;;;;;;4975291;28;20286;-74
2023/02/05 10:08:45;;;;;;;6.40;3.30;;;-0.20;99.90;;;;;;4990655;28;20307;-74
2023/02/05 10:11:41;;;;;;;5.20;3.13;;;-0.40;99.90;;;;;;4958289;28;20215;-74
2023/02/05 10:14:36;;;;;;;5.57;3.07;;;-0.40;99.90;;;;;;4957935;28;20195;-73
2023/02/05 10:17:23;;;;;;;4.57;2.73;;;-0.50;99.90;;;;;;4958155;28;20227;-73
2023/02/05 10:20:11;;;;;;;3.83;2.23;;;-0.50;99.90;;;;;;4958100;28;20206;-74
2023/02/05 10:23:03;;;;;;;3.10;2.33;;;-0.70;99.90;;;;;;4957797;28;20207;-74
2023/02/05 10:25:43;;;;;;;4.10;2.40;;;-0.70;99.90;;;;;;4957562;28;20534;-75
2023/02/05 10:28:34;;;;;;;3.83;2.43;;;-0.70;99.90;;;;;;4975157;28;20199;-74
2023/02/05 10:31:16;;;;;;;3.80;2.33;;;-0.70;99.90;;;;;;4934283;29;20261;-74
2023/02/05 10:33:54;;;;;;;5.00;2.67;;;-0.70;99.90;;;;;;4934243;29;20246;-73
2023/02/05 10:36:24;;;;;;;5.07;3.13;;;-0.70;99.90;;;;;;4944177;28;20207;-73
2023/02/05 10:38:55;;;;;;;4.93;2.70;;;-0.70;99.90;;;;;;4949365;28;20204;-72
2023/02/05 10:41:35;;;;;;;4.73;3.00;;;-0.70;99.90;;;;;;4956465;28;20293;-73
2023/02/05 10:44:12;;;;;;;4.37;2.70;;;-0.70;99.90;;;;;;4956305;28;20272;-74
2023/02/05 10:46:41;;;;;;;5.83;2.90;;;-0.80;99.90;;;;;;4983855;28;20232;-73
2023/02/05 10:49:17;;;;;;;5.13;2.83;;;-0.80;99.90;;;;;;4975871;28;20206;-73
2023/02/05 10:51:45;;;;;;;4.43;2.77;;;-0.70;99.90;;;;;;4975710;28;20213;-70
2023/02/05 10:54:26;;;;;;;7.20;3.20;;;-0.60;99.90;;;;;;4991881;28;20201;-71
2023/02/05 10:56:57;;;;;;;5.20;3.20;;;-0.60;99.90;;;;;;4975546;28;20227;-71
2023/02/05 10:59:29;;;;;;;5.63;3.10;;;-0.50;99.90;;;;;;4975459;28;20203;-70
2023/02/05 11:02:02;;;;;;;6.90;3.13;;;-0.30;99.90;;;;;;4991514;28;20213;-70
2023/02/05 11:04:28;;;;;;;4.77;2.90;;;-0.40;99.90;;;;;;4975085;28;20230;-70
2023/02/05 11:06:56;;;;;;;3.70;2.77;;;-0.50;99.90;;;;;;4992019;28;20309;-72
2023/02/05 11:09:22;;;;;;;5.20;3.07;;;-0.50;99.90;;;;;;5012201;28;20206;-71
2023/02/05 11:12:04;;;;;;;6.17;3.40;;;-0.40;99.90;;;;;;5012040;28;20294;-72
2023/02/05 11:14:39;;;;;;;4.77;3.10;;;-0.60;99.90;;;;;;5012073;28;20594;-72
2023/02/05 11:17:13;;;;;;;5.93;3.17;;;-0.60;99.90;;;;;;5012833;28;20286;-72
2023/02/05 11:19:49;;;;;;;6.53;3.50;;;-0.60;99.90;;;;;;5011670;28;20529;-70
2023/02/05 11:22:35;;;;;;;5.37;3.00;;;-0.50;99.90;;;;;;5013214;28;21016;-71
2023/02/05 11:25:16;;;;;;;7.23;3.50;;;-0.40;99.90;;;;;;5011672;28;20226;-73
2023/02/05 11:27:57;;;;;;;5.67;3.40;;;-0.40;99.90;;;;;;5011780;28;20201;-71
2023/02/05 11:30:31;;;;;;;6.67;3.40;;;-0.20;99.90;;;;;;5011936;28;20323;-72
2023/02/05 11:33:21;;;;;;;6.67;3.83;;;-0.30;99.90;;;;;;5011797;28;20213;-73
2023/02/05 11:36:03;;;;;;;6.20;3.30;;;-0.10;99.90;;;;;;5012965;28;20200;-72
2023/02/05 11:38:43;;;;;;;7.17;3.70;;;-0.10;99.90;;;;;;5011597;28;20207;-74
2023/02/05 11:41:14;;;;;;;7.00;3.90;;;0.00;99.90;;;;;;5011530;28;20205;-73
2023/02/05 11:43:52;;;;;;;5.67;3.60;;;0.10;99.90;;;;;;5011425;28;20290;-72
2023/02/05 11:46:21;;;;;;;6.13;3.47;;;0.00;99.90;;;;;;5011276;28;20245;-74
2023/02/05 11:48:59;;;;;;;7.57;3.53;;;0.10;99.90;;;;;;5011468;28;20189;-73
2023/02/05 11:51:45;;;;;;;5.70;3.40;;;0.10;99.90;;;;;;5011401;28;20306;-70
2023/02/05 11:54:24;;;;;;;6.83;3.80;;;0.10;99.90;;;;;;5011249;28;20290;-74
2023/02/05 11:57:16;;;;;;;8.00;4.00;;;0.10;99.90;;;;;;4995274;28;20205;-74
2023/02/05 12:00:08;;;;;;;7.10;3.80;;;0.00;99.90;;;;;;4975486;28;20200;-70
2023/02/05 12:02:37;;;;;;;7.43;3.97;;;0.00;99.90;;;;;;4975444;28;20671;-72
2023/02/05 12:05:18;;;;;;;7.13;4.13;;;-0.10;99.90;;;;;;4975273;28;20237;-73
2023/02/05 12:08:09;;;;;;;8.17;4.57;;;-0.10;99.90;;;;;;4992919;28;20717;-72
2023/02/05 12:10:51;;;;;;;7.50;4.50;;;-0.20;99.90;;;;;;5006897;28;20205;-70
2023/02/05 12:13:40;;;;;;;9.43;4.70;;;-0.30;99.90;;;;;;5004585;28;20277;-70
2023/02/05 12:16:47;;;;;;;7.63;4.67;;;-0.20;99.90;;;;;;4991071;28;20206;-71
2023/02/05 12:19:23;;;;;;;7.63;4.40;;;-0.20;99.90;;;;;;4991460;28;20217;-69
2023/02/05 12:22:19;;;;;;;10.33;4.50;;;-0.10;99.90;;;;;;5007939;28;20188;-68
2023/02/05 12:25:00;;;;;;;7.00;3.83;;;-0.20;99.90;;;;;;4992735;28;20226;-69
2023/02/05 12:27:42;;;;;;;8.40;4.50;;;-0.20;99.90;;;;;;4994755;28;20196;-68
2023/02/05 12:30:30;;;;;;;8.73;4.40;;;-0.20;99.90;;;;;;4994711;28;20298;-63
2023/02/05 12:33:12;;;;;;;7.93;4.70;;;-0.30;99.90;;;;;;4995200;28;20288;-65
2023/02/05 12:36:16;;;;;;;7.07;3.83;;;-0.40;99.90;;;;;;5015604;28;20203;-63
2023/02/05 12:38:59;;;;;;;6.33;4.07;;;-0.50;99.90;;;;;;5015427;28;20192;-65
2023/02/05 12:41:42;;;;;;;7.40;3.83;;;-0.40;99.90;;;;;;5004889;28;20199;-67
2023/02/05 12:44:43;;;;;;;7.13;3.90;;;-0.40;99.90;;;;;;4986396;28;20216;-69
2023/02/05 12:47:31;;;;;;;8.17;3.53;;;-0.50;99.90;;;;;;5006223;28;20226;-69
2023/02/05 12:50:38;;;;;;;5.83;3.60;;;-0.40;99.90;;;;;;5006955;28;20651;-69
2023/02/05 12:53:10;;;;;;;6.37;3.67;;;-0.30;99.90;;;;;;5013804;28;20195;-70
2023/02/05 12:56:15;;;;;;;7.27;4.03;;;-0.30;99.90;;;;;;5014400;28;20655;-71
2023/02/05 12:58:46;;;;;;;7.07;4.10;;;-0.40;99.90;;;;;;5014780;28;20205;-65
2023/02/05 13:01:18;;;;;;;7.37;3.70;;;-0.30;99.90;;;;;;4996627;28;20195;-70
2023/02/05 13:03:55;;;;;;;6.30;3.87;;;-0.30;99.90;;;;;;4995307;28;20236;-66
2023/02/05 13:06:35;;;;;;;7.00;4.37;;;-0.30;99.90;;;;;;5006006;28;20189;-65
2023/02/05 13:09:28;;;;;;;6.80;3.90;;;-0.30;99.90;;;;;;4996130;28;20577;-70
2023/02/05 13:12:05;;;;;;;8.53;3.77;;;-0.30;99.90;;;;;;4994451;28;20207;-69
2023/02/05 13:14:56;;;;;;;7.00;4.07;;;-0.30;99.90;;;;;;4994315;28;20280;-65
2023/02/05 13:17:26;;;;;;;7.43;3.73;;;-0.20;99.90;;;;;;4986829;28;20187;-66
2023/02/05 13:19:58;;;;;;;6.90;3.77;;;-0.20;99.90;;;;;;4995110;28;20206;-65